Aviation Digital Data Service (ADDS)

Output produced by METARs form (0625 UTC 26 July 2016)
found at http://www.aviationweather.gov/adds/metars/
 
KSBY 260619Z AUTO 15005KT 10SM FEW085 24/23 A2992 RMK AO2 LTG DSNT E-SW RAE04 TSE04 P0000 T02390233
KSBY 260538Z 2606/2706 24005KT P6SM SCT100 
     FM261100 28004KT P6SM SCT100 
     FM262200 24005KT P6SM SCT100 
     FM270000 VRB04KT P6SM BKN100